Chataignier, Louisiana
Current Conditions -  °F | °C
As of 6:15 PM on Wednesday 26 Nov 2014 (Local Time) from KOPL Reporting Station
Clear Clear  
Wind Chill: 57°   Ceiling: Unl
Heat Index: 57°   Visibility: 10mi
Dew Point: 45°   Wind: 5mph
Humidity: 62%   Direction: 240°WSW
Pressure: 30.2"   Gusts: NA
Location:  30.57°N, 92.32°W
Report Text: KOPL 270015Z AUTO 24004KT 10SM CLR 14/07 A3020 RMK AO2 T01410070
Loading
Personal Weather Stations






























Interactive Weather Map New forecast layout! Learn more

10-Day Weather Forecast

Advertisements
Track Severe Weather on mobile